Time;durP1;ratioP1;P1;durP2;ratioP2;P2;SDS_P1;SDS_P2;PMS_P1;PMS_P2;Temp;Humidity;BMP_temperature;BMP_pressure;BME280_temperature;BME280_humidity;BME280_pressure;Samples;Min_cycle;Max_cycle;Signal;HPM_P1;HPM_P2
2023/06/04 00:00:24;;;;;;;3.37;1.05;;;11.30;99.90;;;;;;7330708;32;20346;-55
2023/06/04 00:04:26;;;;;;;2.95;1.58;;;11.10;99.90;;;;;;7339641;32;20410;-55
2023/06/04 00:08:28;;;;;;;2.40;1.10;;;10.90;99.90;;;;;;7320168;32;20247;-54
2023/06/04 00:12:30;;;;;;;4.87;1.40;;;10.80;99.90;;;;;;7330199;32;20153;-54
2023/06/04 00:16:31;;;;;;;1.55;0.90;;;10.70;99.90;;;;;;7331863;32;20099;-55
2023/06/04 00:20:33;;;;;;;3.33;1.10;;;10.70;99.90;;;;;;7316207;32;20509;-54
2023/06/04 00:24:37;;;;;;;3.33;1.00;;;10.60;99.90;;;;;;7323983;32;20272;-54
2023/06/04 00:28:39;;;;;;;1.80;1.10;;;10.80;99.90;;;;;;7330184;32;20108;-55
2023/06/04 00:32:41;;;;;;;4.03;1.33;;;11.10;99.90;;;;;;7325273;32;20612;-55
2023/06/04 00:36:43;;;;;;;2.40;1.30;;;11.30;99.90;;;;;;7328699;32;20535;-54
2023/06/04 00:40:44;;;;;;;4.82;1.20;;;11.60;99.90;;;;;;7331554;32;20104;-54
2023/06/04 00:44:47;;;;;;;1.90;1.20;;;11.70;99.90;;;;;;7327287;32;20627;-54
2023/06/04 00:48:49;;;;;;;2.85;1.35;;;11.80;99.90;;;;;;7326079;32;20521;-54
2023/06/04 00:52:51;;;;;;;2.30;1.25;;;11.90;99.90;;;;;;7328462;32;20441;-54
2023/06/04 00:56:53;;;;;;;2.70;1.45;;;11.90;99.90;;;;;;7328431;32;20569;-54
2023/06/04 01:00:57;;;;;;;2.83;1.37;;;11.90;99.90;;;;;;7333734;32;20219;-55
2023/06/04 01:05:52;;;;;;;6.82;1.50;;;11.90;99.90;;;;;;7329533;32;20122;-54
2023/06/04 01:09:54;;;;;;;3.42;1.50;;;11.90;99.90;;;;;;7239392;32;20210;-54
2023/06/04 01:13:56;;;;;;;3.72;1.83;;;12.00;99.90;;;;;;7326289;32;20545;-54
2023/06/04 01:18:03;;;;;;;3.20;1.40;;;11.90;99.90;;;;;;7324383;32;20156;-54
2023/06/04 01:22:11;;;;;;;;;;;11.90;99.90;;;;;;7333548;32;20628;-53
2023/06/04 01:26:13;;;;;;;3.08;1.45;;;11.90;99.90;;;;;;7325397;32;20006;-54
2023/06/04 01:30:16;;;;;;;3.83;1.52;;;11.90;99.90;;;;;;7327748;32;20161;-54
2023/06/04 01:34:18;;;;;;;3.15;1.40;;;11.80;99.90;;;;;;7312284;32;20309;-54
2023/06/04 01:38:20;;;;;;;3.58;1.40;;;11.80;99.90;;;;;;7334315;32;20565;-54
2023/06/04 01:42:22;;;;;;;5.22;1.58;;;11.80;99.90;;;;;;7325066;32;20104;-54
2023/06/04 01:46:23;;;;;;;3.17;1.55;;;11.70;99.90;;;;;;7326132;32;20103;-54
2023/06/04 01:50:26;;;;;;;5.85;1.58;;;11.60;99.90;;;;;;7335907;32;20532;-54
2023/06/04 01:54:29;;;;;;;4.35;1.73;;;11.70;99.90;;;;;;7312985;32;20138;-54
2023/06/04 01:58:31;;;;;;;2.67;1.37;;;11.50;99.90;;;;;;7323769;32;20627;-54
2023/06/04 02:02:33;;;;;;;4.72;1.50;;;11.60;99.90;;;;;;7329029;32;20305;-54
2023/06/04 02:06:36;;;;;;;5.18;1.67;;;11.50;99.90;;;;;;7325030;32;20656;-56
2023/06/04 02:10:39;;;;;;;4.62;1.60;;;11.50;99.90;;;;;;7322892;32;20769;-54
2023/06/04 02:14:47;;;;;;;3.33;1.83;;;11.40;99.90;;;;;;7327160;32;20126;-54
2023/06/04 02:18:49;;;;;;;2.03;1.30;;;11.30;99.90;;;;;;7326272;32;20107;-54
2023/06/04 02:22:51;;;;;;;3.72;1.50;;;11.30;99.90;;;;;;7324759;32;20225;-54
2023/06/04 02:26:53;;;;;;;4.90;1.60;;;11.20;99.90;;;;;;7326171;32;20104;-54
2023/06/04 02:30:55;;;;;;;2.58;1.58;;;11.20;99.90;;;;;;7323784;32;20272;-54
2023/06/04 02:34:57;;;;;;;4.30;1.35;;;11.10;99.90;;;;;;7332344;32;20583;-54
2023/06/04 02:39:01;;;;;;;3.62;1.50;;;11.10;99.90;;;;;;7318852;32;20423;-54
2023/06/04 02:43:02;;;;;;;3.20;1.50;;;11.10;99.90;;;;;;7324682;32;20195;-53
2023/06/04 02:47:05;;;;;;;3.80;1.50;;;11.00;99.90;;;;;;7329107;32;20259;-54
2023/06/04 02:51:09;;;;;;;2.30;1.60;;;11.00;99.90;;;;;;7327100;32;20247;-54
2023/06/04 02:55:12;;;;;;;3.47;1.83;;;10.90;99.90;;;;;;7331626;32;20182;-54
2023/06/04 02:59:14;;;;;;;2.87;1.40;;;10.90;99.90;;;;;;7329106;32;20523;-54
2023/06/04 03:03:16;;;;;;;3.58;1.55;;;11.00;99.90;;;;;;7327436;32;22055;-56
2023/06/04 03:07:22;;;;;;;3.25;1.60;;;10.90;99.90;;;;;;7327984;32;20165;-54
2023/06/04 03:11:24;;;;;;;2.62;1.37;;;10.90;99.90;;;;;;7322708;32;20121;-53
2023/06/04 03:15:26;;;;;;;4.62;1.35;;;10.90;99.90;;;;;;7327921;32;20707;-54
2023/06/04 03:19:28;;;;;;;3.58;1.70;;;10.80;99.90;;;;;;7321014;32;20183;-54
2023/06/04 03:23:30;;;;;;;4.40;1.67;;;10.80;99.90;;;;;;7328516;32;20510;-54
2023/06/04 03:27:32;;;;;;;3.95;1.33;;;10.80;99.90;;;;;;7331608;32;20324;-54
2023/06/04 03:31:34;;;;;;;4.03;1.48;;;10.70;99.90;;;;;;7326581;32;20127;-54
2023/06/04 03:35:36;;;;;;;4.45;1.52;;;10.70;99.90;;;;;;7329620;32;20261;-54
2023/06/04 03:39:38;;;;;;;3.97;1.55;;;10.70;99.90;;;;;;7333551;32;20122;-54
2023/06/04 03:43:40;;;;;;;5.12;1.37;;;10.70;99.90;;;;;;7331686;32;20099;-54
2023/06/04 03:47:42;;;;;;;4.03;1.40;;;10.70;99.90;;;;;;7319669;32;20178;-53
2023/06/04 03:51:44;;;;;;;3.22;1.60;;;10.60;99.90;;;;;;7334572;32;20528;-54
2023/06/04 03:55:46;;;;;;;5.12;1.50;;;10.60;99.90;;;;;;7330221;32;20885;-55
2023/06/04 03:59:48;;;;;;;3.20;1.50;;;10.60;99.90;;;;;;7329268;32;20122;-54
2023/06/04 04:03:51;;;;;;;3.90;1.48;;;10.60;99.90;;;;;;7330288;32;20144;-54
2023/06/04 04:07:53;;;;;;;2.87;1.67;;;10.70;99.90;;;;;;7334424;32;20551;-54
2023/06/04 04:11:54;;;;;;;3.40;1.87;;;10.60;99.90;;;;;;7334047;32;20114;-54
2023/06/04 04:15:56;;;;;;;7.28;1.90;;;10.60;99.90;;;;;;7328617;32;20190;-53
2023/06/04 04:19:58;;;;;;;3.90;2.10;;;10.60;99.90;;;;;;7334801;32;20576;-54
2023/06/04 04:24:00;;;;;;;3.87;1.90;;;10.70;99.90;;;;;;7333279;32;20158;-54
2023/06/04 04:28:02;;;;;;;4.32;1.92;;;10.80;99.90;;;;;;7328754;32;20129;-54
2023/06/04 04:32:10;;;;;;;4.78;2.20;;;10.90;99.90;;;;;;7332199;32;20130;-54
2023/06/04 04:36:12;;;;;;;6.25;1.70;;;11.10;99.90;;;;;;7308903;32;20410;-54
2023/06/04 04:40:14;;;;;;;3.12;1.48;;;11.30;99.90;;;;;;7323049;32;20192;-55
2023/06/04 04:44:17;;;;;;;5.43;2.12;;;11.50;99.90;;;;;;7326107;32;20679;-55
2023/06/04 04:48:19;;;;;;;4.40;2.00;;;11.60;99.90;;;;;;7323854;32;20496;-55
2023/06/04 04:52:20;;;;;;;6.50;2.50;;;11.90;99.90;;;;;;7331016;32;20114;-55
2023/06/04 04:56:22;;;;;;;4.15;2.17;;;12.10;99.90;;;;;;7330309;32;20190;-54
2023/06/04 05:00:24;;;;;;;3.37;1.95;;;12.30;99.90;;;;;;7328714;32;20312;-54
2023/06/04 05:04:26;;;;;;;9.07;2.47;;;12.40;99.90;;;;;;7332402;32;20166;-55
2023/06/04 05:08:28;;;;;;;3.75;2.28;;;12.70;99.90;;;;;;7330204;32;20383;-55
2023/06/04 05:12:33;;;;;;;4.62;2.28;;;12.70;99.90;;;;;;7326914;32;20167;-55
2023/06/04 05:16:35;;;;;;;4.90;2.00;;;13.00;99.90;;;;;;7326946;32;20747;-55
2023/06/04 05:20:37;;;;;;;5.00;2.42;;;13.10;99.90;;;;;;7312007;32;20284;-55
2023/06/04 05:24:39;;;;;;;4.40;2.35;;;13.30;99.90;;;;;;7325924;32;20234;-56
2023/06/04 05:28:43;;;;;;;6.25;2.25;;;13.60;99.90;;;;;;7327477;32;20201;-54
2023/06/04 05:32:45;;;;;;;4.45;2.28;;;13.90;99.90;;;;;;7325024;32;20213;-56
2023/06/04 05:36:47;;;;;;;3.65;2.33;;;14.50;99.90;;;;;;7320132;32;20203;-56
2023/06/04 05:40:49;;;;;;;7.60;2.47;;;14.80;99.90;;;;;;7324816;32;20430;-56
2023/06/04 05:44:51;;;;;;;3.72;2.08;;;14.70;99.90;;;;;;7322031;32;20695;-56
2023/06/04 05:48:54;;;;;;;4.47;2.15;;;15.20;99.90;;;;;;7322633;32;20254;-56
2023/06/04 05:52:56;;;;;;;6.85;1.90;;;15.30;99.90;;;;;;7321067;32;20148;-56
2023/06/04 05:56:58;;;;;;;3.85;2.08;;;14.90;99.90;;;;;;7324708;32;20482;-55
2023/06/04 06:01:00;;;;;;;2.83;1.70;;;15.20;99.90;;;;;;7329072;32;20744;-56
2023/06/04 06:05:02;;;;;;;4.10;1.92;;;15.10;99.90;;;;;;7325803;32;20245;-56
2023/06/04 06:09:04;;;;;;;2.47;1.60;;;14.90;99.90;;;;;;7314923;32;20092;-56
2023/06/04 06:13:06;;;;;;;3.87;1.70;;;15.70;99.90;;;;;;7326469;32;20107;-57
2023/06/04 06:17:08;;;;;;;3.22;2.00;;;16.70;98.70;;;;;;7320299;32;20125;-56
2023/06/04 06:21:10;;;;;;;6.78;2.10;;;17.30;95.90;;;;;;7327572;32;20816;-57
2023/06/04 06:25:16;;;;;;;2.85;1.60;;;16.50;95.60;;;;;;7325449;32;20182;-58
2023/06/04 06:29:17;;;;;;;1.98;1.10;;;17.00;96.80;;;;;;7315546;32;20323;-56
2023/06/04 06:33:21;;;;;;;2.95;1.50;;;18.00;95.70;;;;;;7315064;32;20250;-55
2023/06/04 06:37:23;;;;;;;6.55;4.03;;;18.50;94.80;;;;;;7326546;32;20191;-56
2023/06/04 06:41:26;;;;;;;2.78;1.67;;;17.90;91.40;;;;;;7323290;32;20099;-55
2023/06/04 06:45:27;;;;;;;3.72;1.50;;;18.00;91.00;;;;;;7329153;32;20210;-55
2023/06/04 06:49:29;;;;;;;3.78;1.30;;;18.00;92.60;;;;;;7332784;32;20108;-56
2023/06/04 06:53:31;;;;;;;6.22;1.52;;;18.70;89.70;;;;;;7330343;32;20115;-56
2023/06/04 06:57:33;;;;;;;5.12;1.65;;;20.10;88.00;;;;;;7330298;32;20217;-55
2023/06/04 07:01:35;;;;;;;5.00;3.20;;;18.40;85.20;;;;;;7320959;32;20539;-57
2023/06/04 07:05:37;;;;;;;6.30;2.10;;;18.10;90.00;;;;;;7316543;32;20237;-56
2023/06/04 07:09:39;;;;;;;4.78;2.12;;;17.60;88.90;;;;;;7327938;32;20190;-57
2023/06/04 07:13:41;;;;;;;4.62;2.10;;;17.80;91.10;;;;;;7334338;32;20516;-56
2023/06/04 07:17:42;;;;;;;6.22;1.87;;;17.50;90.60;;;;;;7326095;32;20517;-57
2023/06/04 07:21:44;;;;;;;4.47;2.22;;;17.70;91.40;;;;;;7329238;32;20613;-57
2023/06/04 07:25:46;;;;;;;4.00;2.28;;;17.70;91.10;;;;;;7332098;32;20974;-60
2023/06/04 07:29:48;;;;;;;7.22;2.17;;;17.40;91.60;;;;;;7336511;32;20138;-60
2023/06/04 07:33:50;;;;;;;4.62;2.17;;;17.50;92.10;;;;;;7329050;32;20505;-60
2023/06/04 07:37:52;;;;;;;4.82;2.40;;;17.60;91.80;;;;;;7335431;32;20552;-60
2023/06/04 07:41:54;;;;;;;5.00;2.17;;;17.70;91.50;;;;;;7328886;32;20129;-61
2023/06/04 07:45:55;;;;;;;7.25;2.83;;;17.70;92.30;;;;;;7332286;32;20119;-60
2023/06/04 07:49:57;;;;;;;6.25;3.62;;;17.80;90.30;;;;;;7331924;32;20396;-57
2023/06/04 07:54:04;;;;;;;6.57;2.33;;;17.90;90.00;;;;;;7331755;32;20588;-56
2023/06/04 07:58:06;;;;;;;6.65;2.78;;;18.20;91.50;;;;;;7332785;32;20134;-56
2023/06/04 08:02:07;;;;;;;3.45;2.10;;;18.40;90.80;;;;;;7329797;32;20194;-57
2023/06/04 08:06:10;;;;;;;5.50;2.03;;;18.80;88.40;;;;;;7328717;32;20123;-56
2023/06/04 08:10:12;;;;;;;5.97;2.60;;;19.20;89.20;;;;;;7319400;32;20138;-56
2023/06/04 08:14:13;;;;;;;5.53;2.12;;;19.50;84.90;;;;;;7331886;32;20127;-55
2023/06/04 08:18:15;;;;;;;5.05;2.10;;;19.40;82.00;;;;;;7328730;32;20577;-56
2023/06/04 08:22:17;;;;;;;7.03;2.00;;;19.30;83.40;;;;;;7324766;32;20265;-56
2023/06/04 08:26:19;;;;;;;4.68;2.10;;;19.90;81.70;;;;;;7328052;32;20772;-56
2023/06/04 08:30:21;;;;;;;5.15;2.40;;;20.20;79.60;;;;;;7334010;32;20214;-55
2023/06/04 08:34:23;;;;;;;5.72;2.30;;;20.30;79.30;;;;;;7330334;32;20344;-56
2023/06/04 08:38:25;;;;;;;3.87;1.90;;;20.60;79.10;;;;;;7322517;32;20527;-57
2023/06/04 08:42:30;;;;;;;4.35;2.30;;;20.70;76.70;;;;;;7333406;32;20226;-56
2023/06/04 08:46:33;;;;;;;5.93;2.90;;;20.90;80.20;;;;;;7334399;32;20151;-56
2023/06/04 08:50:36;;;;;;;6.78;2.40;;;21.50;78.90;;;;;;7332766;32;20150;-56
2023/06/04 08:54:38;;;;;;;3.62;2.10;;;22.00;74.10;;;;;;7320693;32;20309;-57
2023/06/04 08:58:41;;;;;;;2.10;1.77;;;22.40;74.40;;;;;;7325907;32;20114;-57
2023/06/04 09:02:44;;;;;;;4.40;2.03;;;22.70;72.10;;;;;;7327613;32;20181;-56
2023/06/04 09:06:48;;;;;;;3.78;2.10;;;22.20;66.90;;;;;;7320714;32;20103;-57
2023/06/04 09:10:52;;;;;;;3.28;1.85;;;22.70;68.10;;;;;;7327292;32;20190;-56
2023/06/04 09:14:54;;;;;;;5.53;2.20;;;23.10;65.20;;;;;;7321503;32;20142;-56
2023/06/04 09:18:56;;;;;;;6.15;2.00;;;23.00;65.30;;;;;;7311218;32;20175;-58
2023/06/04 09:22:58;;;;;;;6.60;1.77;;;22.90;63.60;;;;;;7329960;32;20246;-57
2023/06/04 09:27:09;;;;;;;3.78;1.60;;;22.70;61.30;;;;;;7325624;32;20173;-56
2023/06/04 09:31:15;;;;;;;4.93;1.40;;;22.90;61.10;;;;;;7321288;32;20247;-56
2023/06/04 09:35:19;;;;;;;2.30;1.45;;;22.90;59.40;;;;;;7311711;32;20304;-57
2023/06/04 09:39:21;;;;;;;3.67;1.30;;;23.00;61.40;;;;;;7327059;32;20546;-57
2023/06/04 09:43:23;;;;;;;4.30;1.60;;;23.70;61.00;;;;;;7329012;32;20115;-57
2023/06/04 09:47:27;;;;;;;3.25;1.30;;;23.70;58.80;;;;;;7314412;32;20249;-57
2023/06/04 09:51:30;;;;;;;4.62;1.75;;;24.10;59.40;;;;;;7324897;32;20245;-57
2023/06/04 09:55:32;;;;;;;2.72;1.60;;;24.10;62.70;;;;;;7334047;32;20134;-57
2023/06/04 09:59:38;;;;;;;4.35;1.50;;;24.80;59.80;;;;;;7325519;32;20163;-57
2023/06/04 10:03:46;;;;;;;2.62;1.55;;;24.50;54.80;;;;;;7334128;32;20141;-57
2023/06/04 10:07:51;;;;;;;6.57;2.12;;;25.40;58.20;;;;;;7330522;32;20252;-58
2023/06/04 10:11:57;;;;;;;3.45;1.45;;;25.60;54.70;;;;;;7335192;32;20135;-57
2023/06/04 10:16:01;;;;;;;5.43;1.45;;;25.60;54.90;;;;;;7320254;32;20162;-57
2023/06/04 10:20:06;;;;;;;3.22;1.58;;;25.20;52.70;;;;;;7333470;32;20438;-57
2023/06/04 10:24:07;;;;;;;6.72;1.33;;;25.10;55.80;;;;;;7336155;32;20844;-58
2023/06/04 10:28:09;;;;;;;3.90;1.60;;;25.10;53.40;;;;;;7327835;32;20333;-57
2023/06/04 10:32:11;;;;;;;4.28;1.48;;;24.60;49.80;;;;;;7328783;32;20721;-57
2023/06/04 10:36:22;;;;;;;3.17;1.55;;;24.10;52.10;;;;;;7328809;32;20163;-57
2023/06/04 10:40:34;;;;;;;3.35;1.40;;;25.00;56.20;;;;;;7333233;32;20115;-57
2023/06/04 10:44:51;;;;;;;2.22;1.30;;;25.40;52.20;;;;;;7332949;32;20120;-57
2023/06/04 10:48:56;;;;;;;4.90;1.20;;;25.80;51.80;;;;;;7331376;32;20222;-58
2023/06/04 10:52:58;;;;;;;3.47;1.30;;;25.70;52.50;;;;;;7330047;32;20228;-57
2023/06/04 10:57:11;;;;;;;2.22;1.42;;;25.60;50.60;;;;;;7329588;32;20140;-57
2023/06/04 11:01:23;;;;;;;3.70;1.50;;;26.00;54.00;;;;;;7323923;32;20355;-57
2023/06/04 11:05:36;;;;;;;5.43;1.60;;;24.80;48.80;;;;;;7329009;32;20139;-58
2023/06/04 11:09:48;;;;;;;3.45;1.50;;;24.60;50.40;;;;;;7328509;32;20233;-58
2023/06/04 11:13:49;;;;;;;5.50;1.83;;;24.40;51.00;;;;;;7303466;32;20115;-58
2023/06/04 11:17:58;;;;;;;6.40;1.70;;;24.30;51.40;;;;;;7317629;32;20197;-58
2023/06/04 11:22:00;;;;;;;3.47;1.80;;;24.60;53.10;;;;;;7327308;32;20155;-57
2023/06/04 11:26:02;;;;;;;3.12;1.50;;;24.90;51.90;;;;;;7318404;32;20163;-58
2023/06/04 11:30:08;;;;;;;3.62;1.40;;;25.50;50.00;;;;;;7328018;32;20372;-54
2023/06/04 11:34:13;;;;;;;6.45;1.67;;;25.90;51.40;;;;;;7315581;32;20147;-55
2023/06/04 11:38:15;;;;;;;5.18;1.60;;;25.70;45.10;;;;;;7323532;32;20119;-55
2023/06/04 11:42:17;;;;;;;3.00;1.98;;;25.60;49.20;;;;;;7332104;32;20100;-58
2023/06/04 11:46:20;;;;;;;2.05;1.40;;;26.10;50.00;;;;;;7332871;32;20726;-58
2023/06/04 11:50:23;;;;;;;3.00;1.40;;;26.30;48.10;;;;;;7318992;32;20103;-58
2023/06/04 11:54:25;;;;;;;3.08;1.30;;;26.50;48.60;;;;;;7330798;32;20549;-57
2023/06/04 11:58:27;;;;;;;4.30;1.60;;;27.20;49.20;;;;;;7335621;32;20278;-58
2023/06/04 12:02:29;;;;;;;2.92;1.60;;;27.20;45.20;;;;;;7328015;32;20250;-57
2023/06/04 12:06:33;;;;;;;3.58;1.60;;;27.30;45.40;;;;;;7329436;32;20157;-58
2023/06/04 12:10:52;;;;;;;2.65;1.50;;;27.30;42.30;;;;;;7333024;32;20735;-57
2023/06/04 12:14:58;;;;;;;3.62;1.50;;;26.90;42.60;;;;;;7332205;32;20552;-57
2023/06/04 12:19:07;;;;;;;5.22;1.30;;;27.40;42.80;;;;;;7334643;32;20211;-57
2023/06/04 12:23:20;;;;;;;2.87;1.58;;;28.40;44.50;;;;;;7321456;32;20561;-58
2023/06/04 12:27:23;;;;;;;3.92;1.73;;;27.70;39.70;;;;;;7312620;32;20203;-57
2023/06/04 12:31:31;;;;;;;1.95;1.58;;;27.50;41.30;;;;;;7326239;32;20107;-57
2023/06/04 12:35:34;;;;;;;5.50;1.83;;;27.90;42.30;;;;;;7329585;32;20146;-57
2023/06/04 12:39:36;;;;;;;2.78;1.08;;;27.50;41.90;;;;;;7328478;32;20150;-58
2023/06/04 12:43:39;;;;;;;5.45;1.62;;;28.60;42.30;;;;;;7329366;32;20345;-58
2023/06/04 12:47:42;;;;;;;1.65;1.33;;;29.60;41.40;;;;;;7327216;32;20217;-58
2023/06/04 12:51:43;;;;;;;1.95;1.20;;;30.40;41.80;;;;;;7326110;32;20156;-57
2023/06/04 12:55:45;;;;;;;5.10;1.77;;;29.50;38.80;;;;;;7330689;32;20514;-58
2023/06/04 12:59:47;;;;;;;2.95;1.17;;;28.90;42.00;;;;;;7325373;32;20891;-57
2023/06/04 13:03:49;;;;;;;3.15;1.60;;;29.40;41.30;;;;;;7313593;32;20205;-58
2023/06/04 13:07:51;;;;;;;6.37;1.35;;;29.20;40.50;;;;;;7312534;32;20166;-55
2023/06/04 13:11:53;;;;;;;2.92;1.23;;;29.00;39.00;;;;;;7327770;32;20119;-56
2023/06/04 13:15:55;;;;;;;2.90;1.40;;;27.30;38.80;;;;;;7328020;32;20442;-58
2023/06/04 13:19:56;;;;;;;2.40;1.15;;;26.60;41.60;;;;;;7327237;32;20129;-56
2023/06/04 13:23:58;;;;;;;2.10;1.30;;;27.50;42.40;;;;;;7330144;32;20686;-56
2023/06/04 13:28:04;;;;;;;1.85;1.20;;;26.60;39.40;;;;;;7319465;32;20226;-57
2023/06/04 13:32:06;;;;;;;2.73;1.33;;;25.70;41.70;;;;;;7324293;32;20506;-56
2023/06/04 13:36:08;;;;;;;2.65;1.20;;;25.70;41.50;;;;;;7327922;32;20157;-56
2023/06/04 13:40:10;;;;;;;5.57;1.58;;;25.40;44.40;;;;;;7324813;32;20481;-55
2023/06/04 13:44:12;;;;;;;2.75;1.55;;;26.00;45.50;;;;;;7323413;32;20422;-55
2023/06/04 13:48:14;;;;;;;1.35;1.02;;;26.40;43.50;;;;;;7309183;32;20176;-56
2023/06/04 13:52:16;;;;;;;2.17;1.10;;;26.10;42.00;;;;;;7316174;32;20112;-55
2023/06/04 13:56:18;;;;;;;3.03;1.35;;;26.30;41.80;;;;;;7327007;32;20262;-56
2023/06/04 14:00:20;;;;;;;2.97;1.20;;;26.00;43.20;;;;;;7322817;32;20207;-58
2023/06/04 14:04:22;;;;;;;6.10;1.87;;;26.20;43.70;;;;;;7327115;32;20592;-57
2023/06/04 14:08:24;;;;;;;2.83;1.50;;;26.30;43.10;;;;;;7315677;32;20186;-58
2023/06/04 14:12:26;;;;;;;3.60;1.33;;;26.60;42.30;;;;;;7330052;32;20165;-56
2023/06/04 14:16:28;;;;;;;4.50;1.33;;;27.30;41.60;;;;;;7323218;32;20126;-56
2023/06/04 14:20:30;;;;;;;3.83;1.60;;;27.30;42.20;;;;;;7330910;32;20324;-56
2023/06/04 14:24:32;;;;;;;2.37;1.15;;;27.50;42.30;;;;;;7327111;32;20284;-56
2023/06/04 14:28:34;;;;;;;1.87;1.20;;;28.10;42.00;;;;;;7329601;32;20159;-55
2023/06/04 14:32:36;;;;;;;3.87;1.40;;;28.50;41.10;;;;;;7328799;32;20127;-55
2023/06/04 14:36:38;;;;;;;3.85;1.42;;;29.00;40.70;;;;;;7325414;32;20135;-57
2023/06/04 14:40:43;;;;;;;4.50;1.40;;;29.30;40.90;;;;;;7327133;32;20838;-57
2023/06/04 14:44:45;;;;;;;2.65;1.65;;;29.80;39.70;;;;;;7325006;32;20135;-57
2023/06/04 14:48:47;;;;;;;3.33;1.45;;;29.90;38.90;;;;;;7334727;32;20166;-57
2023/06/04 14:52:49;;;;;;;3.17;1.40;;;29.50;38.00;;;;;;7328652;32;20198;-58
2023/06/04 14:56:51;;;;;;;2.15;1.20;;;29.20;39.20;;;;;;7333597;32;20771;-57
2023/06/04 15:00:52;;;;;;;4.57;1.45;;;29.50;39.70;;;;;;7327722;32;20139;-57
2023/06/04 15:04:55;;;;;;;4.25;1.35;;;29.70;39.50;;;;;;7327435;32;20551;-56
2023/06/04 15:08:56;;;;;;;5.07;1.35;;;29.40;38.90;;;;;;7334578;32;20103;-56
2023/06/04 15:12:58;;;;;;;4.47;1.33;;;28.80;40.20;;;;;;7327959;32;20108;-56
2023/06/04 15:17:00;;;;;;;2.45;1.30;;;28.60;40.10;;;;;;7329667;32;20107;-55
2023/06/04 15:21:02;;;;;;;3.05;1.42;;;28.00;40.40;;;;;;7330071;32;20226;-54
2023/06/04 15:25:05;;;;;;;5.03;2.55;;;25.90;40.70;;;;;;7328276;32;20119;-55
2023/06/04 15:29:07;;;;;;;3.03;1.27;;;25.30;45.00;;;;;;7325707;32;20158;-56
2023/06/04 15:33:09;;;;;;;3.80;1.35;;;25.20;44.10;;;;;;7332694;32;20238;-55
2023/06/04 15:37:11;;;;;;;2.62;1.27;;;24.70;45.10;;;;;;7326828;32;20194;-57
2023/06/04 15:41:13;;;;;;;3.80;1.40;;;24.10;45.90;;;;;;7328407;32;20134;-56
2023/06/04 15:45:15;;;;;;;14.95;11.45;;;24.20;45.70;;;;;;7326840;32;20514;-56
2023/06/04 15:49:17;;;;;;;4.78;1.42;;;23.90;45.70;;;;;;7335965;32;20134;-56
2023/06/04 15:53:19;;;;;;;3.37;1.30;;;23.80;46.80;;;;;;7331067;32;20258;-56
2023/06/04 15:57:21;;;;;;;3.78;1.45;;;23.70;45.30;;;;;;7328423;32;20241;-56
2023/06/04 16:01:23;;;;;;;3.05;1.20;;;23.40;45.10;;;;;;7328226;32;20241;-56
2023/06/04 16:05:25;;;;;;;2.72;1.10;;;23.20;45.70;;;;;;7328910;32;20689;-56
2023/06/04 16:09:28;;;;;;;4.57;1.60;;;23.10;45.40;;;;;;7332808;32;20119;-56
2023/06/04 16:13:30;;;;;;;2.05;1.33;;;23.00;45.00;;;;;;7331032;32;20285;-56
2023/06/04 16:17:32;;;;;;;2.40;1.48;;;23.20;48.40;;;;;;7328381;32;20246;-57
2023/06/04 16:21:35;;;;;;;3.90;1.62;;;22.90;45.70;;;;;;7332782;32;20132;-55
2023/06/04 16:25:37;;;;;;;5.80;2.20;;;22.80;47.00;;;;;;7323747;32;20103;-58
2023/06/04 16:29:39;;;;;;;6.57;2.17;;;22.50;48.30;;;;;;7323884;32;20111;-56
2023/06/04 16:33:40;;;;;;;3.70;2.28;;;22.50;49.20;;;;;;7328863;32;20153;-56
2023/06/04 16:37:42;;;;;;;4.70;2.03;;;22.50;49.80;;;;;;7326216;32;20110;-56
2023/06/04 16:41:44;;;;;;;3.90;1.77;;;22.70;51.10;;;;;;7312102;32;20624;-56
2023/06/04 16:45:46;;;;;;;4.43;1.90;;;22.60;50.90;;;;;;7324721;32;20183;-56
2023/06/04 16:49:48;;;;;;;2.65;1.92;;;22.50;51.30;;;;;;7330046;32;20545;-56
2023/06/04 16:53:50;;;;;;;4.12;2.15;;;22.60;53.10;;;;;;7326529;32;20205;-56
2023/06/04 16:57:51;;;;;;;2.75;1.70;;;22.40;52.70;;;;;;7324008;32;20242;-56
2023/06/04 17:01:54;;;;;;;3.25;2.00;;;22.30;52.30;;;;;;7330216;32;20104;-56
2023/06/04 17:05:56;;;;;;;3.20;2.22;;;22.40;53.40;;;;;;7320927;32;20512;-55
2023/06/04 17:09:57;;;;;;;3.20;2.05;;;22.40;52.90;;;;;;7318800;32;20193;-57
2023/06/04 17:14:00;;;;;;;3.62;2.20;;;22.30;52.90;;;;;;7305521;32;20337;-56
2023/06/04 17:18:04;;;;;;;3.25;1.92;;;22.20;53.50;;;;;;7310875;32;20116;-57
2023/06/04 17:22:06;;;;;;;4.28;1.90;;;22.10;53.70;;;;;;7310556;32;20107;-56
2023/06/04 17:26:08;;;;;;;4.03;1.80;;;22.10;53.80;;;;;;7331797;32;20242;-56
2023/06/04 17:30:11;;;;;;;5.57;1.98;;;22.10;55.00;;;;;;7326387;32;20242;-56
2023/06/04 17:34:12;;;;;;;3.45;1.75;;;22.00;54.10;;;;;;7330390;32;20157;-55
2023/06/04 17:38:14;;;;;;;6.22;2.10;;;22.00;55.00;;;;;;7314846;32;20112;-56
2023/06/04 17:42:16;;;;;;;2.72;2.08;;;21.80;55.30;;;;;;7317211;32;20130;-56
2023/06/04 17:46:18;;;;;;;3.70;1.77;;;21.80;54.80;;;;;;7318636;32;20153;-56
2023/06/04 17:50:20;;;;;;;4.12;2.20;;;21.70;54.70;;;;;;7330448;32;20207;-56
2023/06/04 17:54:22;;;;;;;5.72;2.00;;;21.70;54.40;;;;;;7328126;32;20123;-56
2023/06/04 17:58:24;;;;;;;4.03;1.83;;;21.50;55.90;;;;;;7323855;32;20104;-60
2023/06/04 18:02:26;;;;;;;3.55;1.80;;;21.40;55.80;;;;;;7318130;32;20687;-56
2023/06/04 18:06:28;;;;;;;3.42;1.60;;;21.50;56.00;;;;;;7317702;32;20222;-56
2023/06/04 18:10:30;;;;;;;2.70;1.65;;;21.40;55.80;;;;;;7326340;32;20127;-55
2023/06/04 18:14:31;;;;;;;5.40;2.85;;;21.30;56.50;;;;;;7328492;32;20454;-56
2023/06/04 18:18:33;;;;;;;5.12;1.70;;;21.20;57.00;;;;;;7315775;32;20115;-55
2023/06/04 18:22:35;;;;;;;2.97;1.65;;;21.10;56.70;;;;;;7316939;32;20600;-55
2023/06/04 18:26:37;;;;;;;6.40;1.65;;;21.10;56.90;;;;;;7330165;32;23978;-56
2023/06/04 18:30:39;;;;;;;2.65;1.60;;;21.00;56.50;;;;;;7325421;32;20757;-55
2023/06/04 18:34:41;;;;;;;3.12;1.40;;;21.00;56.50;;;;;;7324179;32;20111;-56
2023/06/04 18:38:42;;;;;;;2.78;1.60;;;20.80;57.50;;;;;;7325586;32;20502;-56
2023/06/04 18:42:46;;;;;;;4.53;1.60;;;20.70;59.20;;;;;;7330112;32;20481;-56
2023/06/04 18:46:47;;;;;;;3.78;1.60;;;20.80;58.60;;;;;;7334736;32;20110;-57
2023/06/04 18:50:49;;;;;;;3.60;1.42;;;20.60;59.10;;;;;;7324855;32;20570;-56
2023/06/04 18:54:51;;;;;;;3.85;1.67;;;20.40;60.30;;;;;;7335162;32;20644;-56
2023/06/04 18:58:54;;;;;;;4.85;1.80;;;20.30;60.60;;;;;;7336219;32;20134;-55
2023/06/04 19:02:56;;;;;;;2.72;1.50;;;20.20;60.90;;;;;;7313671;32;20770;-55
2023/06/04 19:06:58;;;;;;;5.12;1.50;;;20.00;62.30;;;;;;7316900;32;20140;-56
2023/06/04 19:10:59;;;;;;;4.05;1.40;;;19.90;61.60;;;;;;7325268;32;20203;-56
2023/06/04 19:15:01;;;;;;;6.45;1.50;;;19.70;63.50;;;;;;7326154;32;20206;-56
2023/06/04 19:19:07;;;;;;;3.85;1.80;;;19.60;63.60;;;;;;7332456;32;20202;-57
2023/06/04 19:23:09;;;;;;;2.35;1.42;;;19.50;65.20;;;;;;7330786;32;20273;-57
2023/06/04 19:27:11;;;;;;;4.10;1.70;;;19.40;65.70;;;;;;7328958;32;20222;-57
2023/06/04 19:31:13;;;;;;;2.78;1.40;;;19.20;66.30;;;;;;7319902;32;20630;-57
2023/06/04 19:35:14;;;;;;;3.05;1.40;;;19.10;67.50;;;;;;7327901;32;20166;-57
2023/06/04 19:39:16;;;;;;;6.15;1.60;;;19.00;70.70;;;;;;7335616;32;20789;-56
2023/06/04 19:43:20;;;;;;;2.70;1.40;;;18.70;72.40;;;;;;7329102;32;20785;-56
2023/06/04 19:47:21;;;;;;;14.77;9.15;;;18.40;76.60;;;;;;7332593;32;20224;-57
2023/06/04 19:51:23;;;;;;;2.67;1.90;;;18.10;81.60;;;;;;7309970;32;20188;-57
2023/06/04 19:55:29;;;;;;;6.03;1.83;;;17.80;85.30;;;;;;7323070;32;20174;-54
2023/06/04 19:59:31;;;;;;;2.72;1.70;;;17.60;89.70;;;;;;7331595;32;20235;-55
2023/06/04 20:03:34;;;;;;;6.20;1.60;;;17.40;89.80;;;;;;7327259;32;20524;-54
2023/06/04 20:07:36;;;;;;;2.30;1.40;;;17.20;91.30;;;;;;7325065;32;20130;-55
2023/06/04 20:11:38;;;;;;;5.43;1.30;;;17.10;91.50;;;;;;7321780;32;20261;-55
2023/06/04 20:15:40;;;;;;;2.78;1.42;;;16.90;92.40;;;;;;7326055;32;22183;-55
2023/06/04 20:19:42;;;;;;;2.97;1.58;;;16.80;92.70;;;;;;7327787;32;20143;-55
2023/06/04 20:23:45;;;;;;;2.75;1.52;;;16.60;95.30;;;;;;7328961;32;20119;-54
2023/06/04 20:27:47;;;;;;;4.35;1.42;;;16.40;97.90;;;;;;7323343;32;20103;-55
2023/06/04 20:31:49;;;;;;;4.82;1.70;;;16.30;99.60;;;;;;7327455;32;20111;-56
2023/06/04 20:35:51;;;;;;;5.60;1.60;;;16.10;99.90;;;;;;7327008;32;20715;-56
2023/06/04 20:39:52;;;;;;;6.68;2.00;;;15.90;99.90;;;;;;7308036;32;20128;-56
2023/06/04 20:43:54;;;;;;;7.78;1.77;;;15.70;99.90;;;;;;7322090;32;20133;-55
2023/06/04 20:47:56;;;;;;;4.75;1.77;;;15.60;99.90;;;;;;7329492;32;20203;-55
2023/06/04 20:52:01;;;;;;;4.80;1.77;;;15.40;99.90;;;;;;7329992;32;20194;-55
2023/06/04 20:56:03;;;;;;;4.03;1.58;;;15.10;99.90;;;;;;7330836;32;20137;-54
2023/06/04 21:00:06;;;;;;;4.35;1.80;;;15.00;99.90;;;;;;7329722;32;20471;-54
2023/06/04 21:04:08;;;;;;;3.55;2.08;;;14.80;99.90;;;;;;7325644;32;20608;-55